Cottonwood, Oklahoma
Current Conditions -  °F | °C
As of 7:15 AM on Sunday 23 Nov 2014 (Local Time) from KAQR Reporting Station
Overcast Overcast  
Wind Chill: 57°   Ceiling: 600
Heat Index: 57°   Visibility: 10mi
Dew Point: 57°   Wind: 8mph
Humidity: 100%   Direction: 180°S
Pressure: 29.58"   Gusts: NA
Location:  34.5844°N, 96.2026°W
Report Text: KAQR 231315Z AUTO 18007KT 10SM OVC006 14/14 A2958 RMK AO2
Loading
Personal Weather Stations






























Interactive Weather Map New forecast layout! Learn more

10-Day Weather Forecast

Advertisements
Track Severe Weather on mobile